Time;durP1;ratioP1;P1;durP2;ratioP2;P2;SDS_P1;SDS_P2;PMS_P1;PMS_P2;Temp;Humidity;BMP_temperature;BMP_pressure;BME280_temperature;BME280_humidity;BME280_pressure;Samples;Min_cycle;Max_cycle;Signal;HPM_P1;HPM_P2
2022/02/19 00:01:50;;;;;;;3.80;1.80;;;;;;;10.26;64.36;97061.44;219033;1271;22541;-70
2022/02/19 00:06:55;;;;;;;2.90;1.90;;;;;;;10.24;64.49;97069.48;219403;1271;22735;-70
2022/02/19 00:12:00;;;;;;;6.50;2.20;;;;;;;10.19;64.46;97076.57;219214;1271;24333;-71
2022/02/19 00:17:52;;;;;;;;;;;;;;;;;;;;;
2022/02/19 00:23:15;;;;;;;3.00;1.50;;;;;;;10.06;64.03;97086.12;219335;1271;24385;-71
2022/02/19 00:28:52;;;;;;;2.70;1.60;;;;;;;10.04;62.87;97094.97;219980;1270;25357;-70
2022/02/19 00:33:58;;;;;;;3.20;1.60;;;;;;;10.04;62.63;97111.61;219983;1271;22533;-71
2022/02/19 00:39:16;;;;;;;;;;;;;;;;;;;;;
2022/02/19 00:44:35;;;;;;;1.30;1.10;;;;;;;9.99;61.53;97114.59;219184;1272;25370;-70
2022/02/19 00:50:24;;;;;;;;;;;;;;;;;;;;;
2022/02/19 01:02:28;;;;;;;1.10;0.80;;;;;;;9.67;59.78;97132.63;220414;1271;22561;-70
2022/02/19 01:08:39;;;;;;;1.50;0.70;;;;;;;9.55;59.71;97138.27;220382;1271;22541;-70
2022/02/19 01:15:25;;;;;;;;;;;;;;;;;;;;;
2022/02/19 01:20:53;;;;;;;2.40;1.20;;;;;;;9.31;59.32;97160.20;219265;1271;22600;-70
2022/02/19 01:26:11;;;;;;;1.20;0.60;;;;;;;9.19;58.60;97174.75;219067;1271;24280;-70
2022/02/19 01:31:39;;;;;;;2.10;1.00;;;;;;;9.06;58.02;97197.89;219102;1271;25462;-70
2022/02/19 01:37:33;;;;;;;0.60;0.50;;;;;;;8.96;57.18;97200.81;219048;1271;22562;-70
2022/02/19 01:43:42;;;;;;;;;;;;;;;;;;;;;
2022/02/19 01:49:44;;;;;;;;;;;;;;;;;;;;;
2022/02/19 01:55:35;;;;;;;1.90;0.60;;;;;;;8.61;55.60;97264.88;219824;1271;22589;-71
2022/02/19 02:01:04;;;;;;;1.20;0.50;;;;;;;8.48;55.03;97274.05;220258;1271;23799;-70
2022/02/19 02:07:09;;;;;;;0.70;0.30;;;;;;;8.30;54.13;97284.52;220061;1272;22628;-70
2022/02/19 02:12:26;;;;;;;0.70;0.40;;;;;;;8.21;53.83;97290.53;219464;1271;22563;-71
2022/02/19 02:17:52;;;;;;;0.70;0.40;;;;;;;8.08;52.78;97301.16;219164;1272;25269;-70
2022/02/19 02:23:15;;;;;;;;;;;;;;;;;;;;;
2022/02/19 02:28:24;;;;;;;1.50;0.60;;;;;;;7.85;52.44;97322.50;219516;1272;22561;-70
2022/02/19 02:33:42;;;;;;;0.90;0.50;;;;;;;7.71;52.26;97327.17;219222;1272;22672;-69
2022/02/19 02:38:53;;;;;;;0.40;0.40;;;;;;;7.65;51.72;97332.86;218909;1273;22541;-70
2022/02/19 02:45:00;;;;;;;0.80;0.40;;;;;;;7.60;51.90;97323.61;218935;1275;24176;-70
2022/02/19 02:50:54;;;;;;;1.10;0.40;;;;;;;7.54;51.09;97331.95;218887;1275;22573;-70
2022/02/19 02:56:41;;;;;;;0.90;0.40;;;;;;;7.50;50.87;97332.70;219178;1273;22672;-70
2022/02/19 03:01:50;;;;;;;2.80;0.50;;;;;;;7.36;51.22;97336.38;219995;1273;23191;-70
2022/02/19 03:07:00;;;;;;;0.40;0.40;;;;;;;7.20;52.08;97341.59;218635;1273;22599;-69
2022/02/19 03:12:06;;;;;;;0.70;0.40;;;;;;;7.01;52.03;97335.30;219359;1273;25238;-71
2022/02/19 03:17:51;;;;;;;0.70;0.30;;;;;;;6.93;51.73;97349.41;219493;1273;22553;-69
2022/02/19 03:23:07;;;;;;;1.00;0.80;;;;;;;6.90;51.51;97360.98;218980;1275;24314;-69
2022/02/19 03:28:37;;;;;;;;;;;;;;;;;;;;;
2022/02/19 03:33:50;;;;;;;1.80;0.50;;;;;;;6.83;51.29;97377.64;219206;1273;24637;-70
2022/02/19 03:39:26;;;;;;;0.70;0.40;;;;;;;6.72;51.15;97379.48;218938;1273;22781;-70
2022/02/19 03:44:58;;;;;;;1.00;0.40;;;;;;;6.62;51.85;97384.70;219129;1273;25382;-69
2022/02/19 03:50:18;;;;;;;1.30;0.50;;;;;;;6.54;51.79;97398.20;219243;1273;22565;-70
2022/02/19 03:56:09;;;;;;;;;;;;;;;;;;;;;
2022/02/19 04:01:25;;;;;;;1.20;0.40;;;;;;;6.43;51.27;97412.28;220258;1274;22568;-70
2022/02/19 04:06:31;;;;;;;1.50;0.40;;;;;;;6.42;51.06;97421.89;220313;1271;22570;-69
2022/02/19 04:11:43;;;;;;;0.80;0.40;;;;;;;6.40;51.22;97426.45;219256;1271;23626;-70
2022/02/19 04:17:41;;;;;;;1.10;0.40;;;;;;;6.34;51.23;97432.19;219299;1271;26037;-69
2022/02/19 04:23:13;;;;;;;1.20;0.50;;;;;;;6.27;51.30;97434.60;219305;1271;25354;-70
2022/02/19 04:28:28;;;;;;;2.00;0.40;;;;;;;6.18;51.76;97441.77;219558;1271;26152;-69
2022/02/19 04:34:38;;;;;;;0.20;0.20;;;;;;;6.13;51.12;97445.52;219057;1273;25127;-70
2022/02/19 04:40:25;;;;;;;1.50;0.40;;;;;;;6.10;50.65;97452.60;219281;1271;24260;-69
2022/02/19 04:54:02;;;;;;;0.80;0.40;;;;;;;5.91;50.48;97455.78;218763;1272;23086;-69
2022/02/19 04:59:58;;;;;;;1.00;0.50;;;;;;;5.81;50.95;97463.38;218943;1271;25374;-70
2022/02/19 05:05:21;;;;;;;1.00;0.50;;;;;;;5.74;50.59;97471.77;219246;1271;22537;-69
2022/02/19 05:10:25;;;;;;;1.70;0.50;;;;;;;5.73;50.70;97472.70;219091;1271;22555;-69
2022/02/19 05:15:50;;;;;;;0.60;0.60;;;;;;;5.71;50.97;97468.52;219280;1271;24324;-71
2022/02/19 05:21:22;;;;;;;0.50;0.20;;;;;;;5.73;50.99;97463.92;219225;1271;22591;-71
2022/02/19 05:26:50;;;;;;;2.10;0.60;;;;;;;5.68;51.41;97467.13;219230;1271;22490;-70
2022/02/19 05:32:01;;;;;;;2.20;0.50;;;;;;;5.70;51.76;97471.04;219309;1271;22602;-69
2022/02/19 05:37:35;;;;;;;1.60;0.50;;;;;;;5.64;52.25;97472.92;219432;1273;25411;-69
2022/02/19 05:42:53;;;;;;;1.50;0.40;;;;;;;5.58;52.00;97464.83;220556;1271;25261;-69
2022/02/19 05:48:04;;;;;;;1.20;0.40;;;;;;;5.58;51.53;97477.10;219527;1271;25419;-70
2022/02/19 05:53:34;;;;;;;1.80;0.50;;;;;;;5.59;50.97;97476.72;219624;1271;22657;-70
2022/02/19 05:58:43;;;;;;;2.80;0.50;;;;;;;5.58;51.05;97483.05;219416;1271;22832;-70
2022/02/19 06:03:56;;;;;;;3.70;0.80;;;;;;;5.57;50.89;97510.95;219359;1271;22843;-69
2022/02/19 06:09:31;;;;;;;2.30;0.70;;;;;;;5.55;50.97;97527.98;219154;1271;25342;-69
2022/02/19 06:14:57;;;;;;;1.90;1.00;;;;;;;5.55;50.82;97528.77;220139;1271;22761;-70
2022/02/19 06:20:19;;;;;;;3.20;0.80;;;;;;;5.63;50.79;97532.82;219082;1271;22903;-71
2022/02/19 06:25:35;;;;;;;2.70;0.50;;;;;;;5.67;51.00;97544.78;219395;1271;22544;-70
2022/02/19 06:30:45;;;;;;;1.40;0.50;;;;;;;5.64;51.34;97550.66;219081;1271;22665;-70
2022/02/19 06:35:59;;;;;;;1.20;0.50;;;;;;;5.67;51.41;97555.52;219696;1271;22566;-71
2022/02/19 06:41:05;;;;;;;1.70;0.60;;;;;;;5.76;51.82;97565.60;219294;1270;24465;-70
2022/02/19 06:46:31;;;;;;;2.30;0.60;;;;;;;5.89;51.56;97594.66;219403;1271;24115;-70
2022/02/19 06:51:38;;;;;;;2.90;1.00;;;;;;;6.06;49.79;97614.30;219396;1271;22716;-69
2022/02/19 06:56:44;;;;;;;0.70;0.50;;;;;;;6.30;47.73;97611.68;219458;1271;24248;-69
2022/02/19 07:01:48;;;;;;;1.70;0.70;;;;;;;6.49;47.19;97627.73;219417;1271;25496;-70
2022/02/19 07:06:51;;;;;;;2.90;0.80;;;;;;;6.63;45.88;97636.25;219365;1271;22603;-70
2022/02/19 07:11:56;;;;;;;1.60;0.60;;;;;;;6.73;44.10;97653.39;219254;1271;25397;-69
2022/02/19 07:17:04;;;;;;;2.00;0.90;;;;;;;6.83;43.43;97653.80;219481;1271;22560;-70
2022/02/19 07:22:16;;;;;;;1.70;0.80;;;;;;;6.90;43.59;97665.90;219563;1271;376055;-70
2022/02/19 07:27:24;;;;;;;2.40;0.80;;;;;;;6.93;43.40;97678.47;219259;1271;26056;-70
2022/02/19 07:32:33;;;;;;;3.30;0.80;;;;;;;6.98;43.40;97696.02;219297;1271;22718;-69
2022/02/19 07:37:42;;;;;;;2.60;0.80;;;;;;;7.04;42.92;97694.17;218911;1271;25451;-70
2022/02/19 07:42:44;;;;;;;3.00;1.00;;;;;;;7.09;42.55;97709.91;220471;1271;25429;-70
2022/02/19 07:48:16;;;;;;;1.60;0.60;;;;;;;7.14;42.79;97715.25;219078;1271;25410;-70
2022/02/19 08:06:12;;;;;;;2.00;0.70;;;;;;;7.47;41.70;97760.80;221126;1271;22543;-71
2022/02/19 08:11:21;;;;;;;1.80;0.60;;;;;;;7.55;41.56;97767.44;220972;1271;22562;-71
2022/02/19 08:16:51;;;;;;;1.50;0.50;;;;;;;7.60;40.34;97775.45;220826;1271;22638;-71
2022/02/19 08:21:57;;;;;;;2.00;0.50;;;;;;;7.67;40.97;97790.70;220979;1271;24257;-71
2022/02/19 08:27:24;;;;;;;2.00;0.60;;;;;;;7.72;40.71;97791.73;220712;1271;23848;-71
2022/02/19 08:32:56;;;;;;;2.30;0.60;;;;;;;7.82;40.80;97794.59;220805;1268;24305;-71
2022/02/19 08:37:58;;;;;;;2.30;1.00;;;;;;;7.93;40.20;97804.70;220769;1271;25332;-72
2022/02/19 08:43:04;;;;;;;3.00;0.60;;;;;;;8.03;40.23;97805.73;220998;1271;22711;-70
2022/02/19 08:48:08;;;;;;;3.00;0.70;;;;;;;8.19;40.56;97820.12;219399;1271;22754;-68
2022/02/19 08:53:12;;;;;;;2.40;0.50;;;;;;;8.40;39.20;97839.94;219522;1271;22602;-69
2022/02/19 08:58:17;;;;;;;1.70;0.70;;;;;;;8.53;38.40;97841.97;219494;1270;24314;-71
2022/02/19 09:03:20;;;;;;;1.10;0.50;;;;;;;8.55;37.67;97850.63;220635;1271;22733;-71
2022/02/19 09:08:25;;;;;;;1.20;0.40;;;;;;;8.53;37.74;97856.86;220722;1271;22598;-71
2022/02/19 09:13:27;;;;;;;0.60;0.30;;;;;;;8.60;38.44;97860.58;220670;1271;22577;-71
2022/02/19 09:18:38;;;;;;;1.90;0.60;;;;;;;8.71;37.30;97874.39;220563;1270;22545;-70
2022/02/19 09:23:49;;;;;;;3.10;0.80;;;;;;;8.80;36.72;97893.88;220763;1270;22716;-70
2022/02/19 09:28:57;;;;;;;3.10;0.80;;;;;;;8.97;36.51;97887.86;220667;1271;24279;-71
2022/02/19 09:34:00;;;;;;;2.50;0.70;;;;;;;9.06;36.66;97906.11;220726;1271;22598;-70
2022/02/19 09:39:09;;;;;;;2.50;0.60;;;;;;;9.01;37.14;97915.84;220669;1271;22626;-70
2022/02/19 09:44:16;;;;;;;1.80;0.60;;;;;;;8.90;37.64;97935.14;220591;1271;24414;-70
2022/02/19 09:49:22;;;;;;;2.20;0.70;;;;;;;8.77;37.38;97944.89;221053;1271;22728;-69
2022/02/19 09:54:36;;;;;;;2.20;0.70;;;;;;;8.52;36.99;97957.77;219606;1271;22579;-70
2022/02/19 09:59:45;;;;;;;1.90;0.70;;;;;;;8.38;37.40;97981.31;219340;1271;22554;-70
2022/02/19 10:04:53;;;;;;;1.60;0.50;;;;;;;8.34;38.32;97980.27;219306;1271;25097;-71
2022/02/19 10:10:01;;;;;;;1.20;0.60;;;;;;;8.39;37.83;97987.50;220801;1271;22567;-71
2022/02/19 10:15:06;;;;;;;2.00;0.50;;;;;;;8.44;37.89;98003.55;220522;1271;24339;-70
2022/02/19 10:20:14;;;;;;;2.60;0.90;;;;;;;8.48;37.57;98007.49;220893;1271;22598;-70
2022/02/19 10:25:21;;;;;;;1.70;0.70;;;;;;;8.50;37.75;98017.81;220185;1271;22621;-70
2022/02/19 10:30:26;;;;;;;2.00;0.60;;;;;;;8.49;38.11;98026.70;220833;1271;25372;-71
2022/02/19 10:35:35;;;;;;;1.70;1.00;;;;;;;8.48;37.99;98020.91;220915;1269;24348;-71
2022/02/19 10:41:09;;;;;;;1.40;0.50;;;;;;;8.51;37.76;98035.30;220598;1271;22699;-69
2022/02/19 10:46:14;;;;;;;3.50;0.50;;;;;;;8.53;37.83;98054.15;220819;1271;24241;-70
2022/02/19 10:51:26;;;;;;;1.90;0.70;;;;;;;8.41;37.74;98050.46;220635;1271;22656;-70
2022/02/19 10:57:06;;;;;;;2.20;0.90;;;;;;;8.28;37.87;98065.54;220581;1271;22920;-70
2022/02/19 11:02:41;;;;;;;1.10;0.50;;;;;;;8.17;38.45;98067.51;220637;1271;22598;-71
2022/02/19 11:08:13;;;;;;;2.90;0.60;;;;;;;8.23;38.94;98066.58;220985;1270;24353;-71
2022/02/19 11:13:27;;;;;;;0.90;0.50;;;;;;;8.34;38.90;98075.75;221018;1271;25647;-71
2022/02/19 11:18:36;;;;;;;1.80;0.70;;;;;;;8.39;39.28;98076.00;220955;1271;25457;-70
2022/02/19 11:24:09;;;;;;;1.40;0.50;;;;;;;8.43;38.86;98074.45;220927;1270;24271;-72
2022/02/19 11:29:25;;;;;;;2.20;0.50;;;;;;;8.46;39.14;98077.20;219430;1270;22872;-70
2022/02/19 11:34:39;;;;;;;2.60;0.50;;;;;;;8.60;39.41;98065.33;219783;1269;22614;-70
2022/02/19 11:40:25;;;;;;;1.50;0.80;;;;;;;8.89;39.76;98069.39;219456;1271;22555;-70
2022/02/19 11:45:42;;;;;;;3.10;0.70;;;;;;;9.03;39.06;98084.27;220938;1271;22671;-70
2022/02/19 11:51:26;;;;;;;2.60;1.00;;;;;;;8.97;37.56;98072.98;220871;1270;25301;-70
2022/02/19 11:56:37;;;;;;;1.70;0.70;;;;;;;9.03;38.37;98086.08;220750;1271;26525;-71
2022/02/19 12:02:18;;;;;;;1.90;0.60;;;;;;;9.10;38.46;98096.41;221163;1270;25326;-69
2022/02/19 12:07:57;;;;;;;2.10;0.80;;;;;;;9.05;38.08;98104.30;219510;1271;22702;-72
2022/02/19 12:13:09;;;;;;;1.10;0.50;;;;;;;8.89;38.28;98109.45;220606;1271;24253;-71
2022/02/19 12:18:12;;;;;;;;;;;;;;;8.69;38.72;98120.78;220200;1271;22539;-70
2022/02/19 12:23:15;;;;;;;1.80;0.60;;;;;;;8.52;38.79;98119.81;219645;1271;24338;-70
2022/02/19 12:28:29;;;;;;;1.70;0.40;;;;;;;8.38;39.60;98129.34;220748;1271;23008;-70
2022/02/19 12:33:32;;;;;;;0.80;0.20;;;;;;;8.25;39.14;98131.27;220806;1271;22544;-71
2022/02/19 12:38:52;;;;;;;1.70;0.60;;;;;;;8.18;39.24;98143.92;220839;1271;24090;-71
2022/02/19 12:44:17;;;;;;;3.50;0.90;;;;;;;8.20;39.28;98147.48;220732;1271;24252;-70
2022/02/19 12:49:36;;;;;;;1.10;0.70;;;;;;;8.17;39.65;98154.55;219967;1271;22704;-70
2022/02/19 12:55:17;;;;;;;1.70;0.60;;;;;;;8.12;39.84;98160.33;220816;1271;25253;-70
2022/02/19 13:00:56;;;;;;;2.00;1.10;;;;;;;8.06;39.98;98171.70;220301;1271;22581;-69
2022/02/19 13:06:27;;;;;;;2.00;0.90;;;;;;;8.04;40.36;98176.59;219938;1271;22610;-71
2022/02/19 13:11:31;;;;;;;2.50;0.60;;;;;;;8.03;40.40;98183.48;219658;1271;22584;-71
2022/02/19 13:16:39;;;;;;;1.40;0.70;;;;;;;7.95;40.34;98188.27;219504;1271;22551;-70
2022/02/19 13:21:41;;;;;;;1.40;0.50;;;;;;;7.94;40.68;98186.41;220266;1271;25370;-70
2022/02/19 13:26:50;;;;;;;1.80;0.90;;;;;;;7.94;40.28;98202.32;219477;1271;22629;-69
2022/02/19 13:32:12;;;;;;;1.40;0.80;;;;;;;7.93;40.36;98202.22;219640;1271;22570;-71
2022/02/19 13:37:16;;;;;;;1.00;0.60;;;;;;;7.95;40.47;98225.25;219776;1271;22757;-70
2022/02/19 13:42:37;;;;;;;1.70;0.70;;;;;;;7.94;40.40;98228.45;220489;1271;22925;-70
2022/02/19 13:47:40;;;;;;;2.10;0.70;;;;;;;7.94;40.09;98238.91;221010;1270;22578;-70
2022/02/19 13:52:45;;;;;;;1.70;0.70;;;;;;;7.87;39.54;98232.05;219811;1271;22547;-69
2022/02/19 13:57:50;;;;;;;1.20;0.50;;;;;;;7.95;38.42;98240.83;219402;1273;24708;-70
2022/02/19 14:03:12;;;;;;;1.80;0.60;;;;;;;7.97;38.47;98248.79;219637;1271;22590;-71
2022/02/19 14:09:07;;;;;;;;;;;;;;;;;;;;;
2022/02/19 14:14:34;;;;;;;1.80;0.60;;;;;;;8.06;39.00;98266.30;219532;1271;22560;-70
2022/02/19 14:19:58;;;;;;;1.80;0.60;;;;;;;8.14;38.77;98263.01;220863;1270;22561;-71
2022/02/19 14:25:39;;;;;;;;;;;;;;;;;;;;;
2022/02/19 14:31:37;;;;;;;2.00;0.70;;;;;;;8.21;39.24;98266.08;220511;1271;25423;-69
2022/02/19 14:36:57;;;;;;;1.70;0.70;;;;;;;8.09;38.52;98277.73;220426;1271;22688;-70
2022/02/19 14:42:07;;;;;;;2.00;1.10;;;;;;;7.94;38.08;98287.49;220457;1271;23571;-71
2022/02/19 14:47:12;;;;;;;2.60;1.10;;;;;;;7.78;37.99;98289.52;220111;1273;22715;-71
2022/02/19 14:52:26;;;;;;;1.70;0.60;;;;;;;7.62;38.11;98297.66;219869;1271;22642;-71
2022/02/19 14:57:32;;;;;;;2.40;0.80;;;;;;;7.35;38.45;98301.63;220184;1271;22563;-71
2022/02/19 15:02:47;;;;;;;1.20;0.80;;;;;;;7.15;38.67;98307.09;220365;1271;23138;-70
2022/02/19 15:07:55;;;;;;;2.00;0.70;;;;;;;7.03;39.08;98314.20;220219;1271;22541;-72
2022/02/19 15:13:00;;;;;;;1.00;0.70;;;;;;;7.06;39.01;98317.64;220459;1271;22748;-70
2022/02/19 15:18:03;;;;;;;2.80;0.70;;;;;;;7.11;38.88;98317.73;220429;1271;22580;-71
2022/02/19 15:23:05;;;;;;;3.40;1.20;;;;;;;7.12;39.00;98322.55;220410;1271;22566;-70
2022/02/19 15:28:11;;;;;;;3.60;1.10;;;;;;;7.12;39.38;98323.89;220406;1271;23814;-71
2022/02/19 15:39:17;;;;;;;2.00;0.90;;;;;;;6.73;40.36;98337.52;220926;1271;25251;-71
2022/02/19 15:44:19;;;;;;;3.50;1.10;;;;;;;6.53;41.00;98354.75;220801;1271;22567;-70
2022/02/19 15:49:38;;;;;;;2.10;1.10;;;;;;;6.32;41.20;98359.66;220867;1271;25557;-71
2022/02/19 16:00:14;;;;;;;1.70;0.80;;;;;;;5.95;41.85;98379.02;221002;1271;22532;-71
2022/02/19 16:05:16;;;;;;;1.90;0.80;;;;;;;5.80;42.55;98385.70;221058;1271;22583;-70
2022/02/19 16:10:31;;;;;;;1.80;0.90;;;;;;;5.66;42.79;98395.48;219909;1271;25249;-70
2022/02/19 16:15:56;;;;;;;2.10;0.90;;;;;;;5.50;43.22;98399.23;220848;1271;22736;-70
2022/02/19 16:20:58;;;;;;;2.50;1.20;;;;;;;5.34;43.68;98405.44;220004;1271;24394;-69
2022/02/19 16:26:04;;;;;;;2.40;1.10;;;;;;;5.23;43.83;98415.29;220043;1270;22577;-71
2022/02/19 16:31:28;;;;;;;2.50;1.10;;;;;;;5.08;44.18;98413.48;220686;1271;22563;-71
2022/02/19 16:36:35;;;;;;;3.20;1.70;;;;;;;4.91;44.68;98428.94;220495;1271;24525;-70
2022/02/19 16:41:37;;;;;;;3.90;1.50;;;;;;;4.77;45.00;98436.46;220938;1271;23052;-70
2022/02/19 16:46:42;;;;;;;1.90;1.30;;;;;;;4.64;45.17;98449.56;220648;1271;24222;-70
2022/02/19 16:51:45;;;;;;;2.40;1.10;;;;;;;4.55;45.44;98455.66;220922;1271;22541;-70
2022/02/19 16:57:01;;;;;;;;;;;;;;;;;;;;;
2022/02/19 17:02:21;;;;;;;4.90;1.80;;;;;;;4.38;46.03;98477.89;220348;1272;22477;-70
2022/02/19 17:07:49;;;;;;;8.70;3.20;;;;;;;4.29;46.52;98490.30;220291;1271;24177;-71
2022/02/19 17:13:26;;;;;;;4.90;2.80;;;;;;;4.14;47.20;98488.95;220512;1271;22584;-70
2022/02/19 17:18:54;;;;;;;4.20;1.80;;;;;;;4.02;47.46;98496.80;220557;1271;25273;-70
2022/02/19 17:24:15;;;;;;;4.90;2.30;;;;;;;3.89;47.91;98502.46;220930;1271;25267;-70
2022/02/19 17:29:44;;;;;;;8.40;2.80;;;;;;;3.82;48.05;98515.23;220416;1271;25376;-70
2022/02/19 17:34:49;;;;;;;6.60;3.50;;;;;;;3.74;48.16;98526.59;220458;1271;22554;-70
2022/02/19 17:39:55;;;;;;;7.10;3.20;;;;;;;3.60;48.44;98526.40;219901;1271;22626;-68
2022/02/19 17:45:10;;;;;;;7.20;3.40;;;;;;;3.43;48.84;98534.84;219852;1271;23138;-71
2022/02/19 17:50:39;;;;;;;8.80;4.20;;;;;;;3.30;49.14;98537.27;219774;1271;22734;-69
2022/02/19 17:56:01;;;;;;;8.40;4.00;;;;;;;3.18;49.61;98547.86;219732;1271;22723;-71
2022/02/19 18:01:29;;;;;;;13.90;5.60;;;;;;;3.13;49.74;98555.49;219941;1271;23345;-70
2022/02/19 18:06:43;;;;;;;16.50;7.00;;;;;;;3.18;49.77;98559.31;220530;1271;22717;-70
2022/02/19 18:12:21;;;;;;;11.10;4.60;;;;;;;3.30;49.67;98566.77;220739;1271;22541;-70
2022/02/19 18:18:05;;;;;;;12.30;5.90;;;;;;;3.41;49.58;98563.62;220787;1271;25489;-71
2022/02/19 18:23:26;;;;;;;;;;;;;;;;;;;;;
2022/02/19 18:28:32;;;;;;;11.90;4.90;;;;;;;3.48;49.37;98565.23;219543;1274;22669;-70
2022/02/19 18:33:52;;;;;;;6.90;3.80;;;;;;;3.47;49.25;98568.58;219916;1271;22551;-70
2022/02/19 18:38:57;;;;;;;9.60;3.30;;;;;;;3.45;49.14;98574.48;219431;1271;22615;-69
2022/02/19 18:43:59;;;;;;;6.60;2.90;;;;;;;3.39;49.13;98574.14;219684;1272;25466;-70
2022/02/19 18:49:24;;;;;;;7.10;4.20;;;;;;;3.36;49.02;98583.37;219807;1271;22576;-70
2022/02/19 18:54:40;;;;;;;11.70;5.50;;;;;;;3.40;48.94;98584.70;220357;1272;22999;-70
2022/02/19 18:59:58;;;;;;;15.40;5.70;;;;;;;3.44;48.90;98590.78;220580;1271;24406;-70
2022/02/19 19:05:10;;;;;;;11.40;5.10;;;;;;;3.41;48.90;98592.70;220107;1274;24323;-69
2022/02/19 19:10:16;;;;;;;13.00;5.00;;;;;;;3.32;49.00;98597.02;220000;1272;24315;-70
2022/02/19 19:16:19;;;;;;;;;;;;;;;;;;;;;
2022/02/19 19:22:16;;;;;;;;;;;;;;;;;;;;;
2022/02/19 19:28:49;;;;;;;11.00;5.10;;;;;;;2.90;49.62;98626.48;220106;1273;24006;-70
2022/02/19 19:34:40;;;;;;;14.40;6.00;;;;;;;2.81;49.81;98630.45;219391;1274;25384;-71
2022/02/19 19:40:04;;;;;;;17.50;6.20;;;;;;;2.76;49.97;98625.40;219478;1273;24259;-70
2022/02/19 19:45:16;;;;;;;17.20;7.30;;;;;;;2.68;50.12;98630.88;219330;1273;25387;-70
2022/02/19 19:51:25;;;;;;;;;;;;;;;;;;;;;
2022/02/19 19:57:05;;;;;;;20.50;8.90;;;;;;;2.36;50.47;98631.67;220193;1273;22561;-70
2022/02/19 20:02:24;;;;;;;25.50;11.70;;;;;;;2.25;50.84;98633.84;219900;1273;22571;-70
2022/02/19 20:07:34;;;;;;;22.10;10.20;;;;;;;2.12;50.98;98634.93;219071;1271;25400;-69
2022/02/19 20:13:08;;;;;;;;;;;;;;;;;;;;;
2022/02/19 20:19:08;;;;;;;19.40;7.80;;;;;;;1.81;51.31;98623.20;219250;1273;22948;-70
2022/02/19 20:24:38;;;;;;;20.80;9.70;;;;;;;1.68;51.53;98624.66;220145;1273;25368;-70
2022/02/19 20:30:01;;;;;;;24.20;10.50;;;;;;;1.53;51.78;98614.16;220031;1273;22570;-69
2022/02/19 20:35:09;;;;;;;20.10;8.90;;;;;;;1.38;52.18;98617.59;219051;1274;22570;-70
2022/02/19 20:40:17;;;;;;;22.10;9.60;;;;;;;1.22;52.57;98620.22;219050;1273;23197;-71
2022/02/19 20:45:22;;;;;;;19.10;8.20;;;;;;;1.10;52.86;98623.85;219099;1273;22637;-70
2022/02/19 20:50:28;;;;;;;20.40;8.30;;;;;;;0.95;53.04;98627.43;220205;1273;22661;-70
2022/02/19 20:55:36;;;;;;;19.10;8.80;;;;;;;0.82;53.33;98622.70;219848;1273;23070;-70
2022/02/19 21:00:47;;;;;;;24.30;9.00;;;;;;;0.75;53.73;98623.43;220050;1273;22614;-69
2022/02/19 21:05:58;;;;;;;21.30;7.50;;;;;;;0.77;54.46;98631.58;219184;1272;22551;-70
2022/02/19 21:11:17;;;;;;;21.20;7.60;;;;;;;0.86;55.00;98635.14;219602;1271;22580;-71
2022/02/19 21:16:53;;;;;;;26.50;8.70;;;;;;;0.97;54.81;98626.09;219376;1271;22551;-70
2022/02/19 21:21:56;;;;;;;22.80;9.30;;;;;;;1.00;54.75;98627.44;219673;1271;25411;-70
2022/02/19 21:27:02;;;;;;;18.30;8.00;;;;;;;0.99;54.53;98626.10;219597;1271;25315;-70
2022/02/19 21:32:09;;;;;;;19.30;7.90;;;;;;;0.97;55.02;98620.34;219460;1271;22579;-70
2022/02/19 21:37:16;;;;;;;18.50;6.80;;;;;;;0.95;54.87;98614.92;219629;1271;22528;-71
2022/02/19 21:42:38;;;;;;;24.30;8.20;;;;;;;0.93;55.40;98617.56;219793;1271;22560;-71
2022/02/19 21:47:46;;;;;;;21.50;8.80;;;;;;;0.98;55.58;98614.41;220130;1269;25228;-71
2022/02/19 21:52:56;;;;;;;18.10;7.40;;;;;;;1.06;55.59;98610.26;219885;1271;25271;-70
2022/02/19 21:57:58;;;;;;;16.40;7.00;;;;;;;1.12;55.73;98613.83;219461;1271;24283;-70
2022/02/19 22:03:07;;;;;;;17.50;7.10;;;;;;;1.14;55.44;98611.64;219116;1271;23048;-69
2022/02/19 22:08:09;;;;;;;21.50;7.80;;;;;;;1.08;55.42;98603.80;219282;1271;22567;-71
2022/02/19 22:13:11;;;;;;;16.70;5.90;;;;;;;0.97;55.42;98604.80;220433;1271;22571;-71
2022/02/19 22:18:31;;;;;;;11.80;5.40;;;;;;;0.91;55.57;98610.39;219608;1271;25340;-70
2022/02/19 22:23:33;;;;;;;14.60;6.60;;;;;;;0.81;55.50;98608.80;219382;1271;22564;-71
2022/02/19 22:28:39;;;;;;;20.10;8.80;;;;;;;0.67;55.67;98611.59;219529;1271;25404;-70
2022/02/19 22:33:45;;;;;;;26.80;10.70;;;;;;;0.54;55.85;98603.67;219779;1271;24137;-70
2022/02/19 22:38:56;;;;;;;23.60;9.90;;;;;;;0.45;55.87;98592.67;220381;1271;25557;-70
2022/02/19 22:44:22;;;;;;;20.70;9.50;;;;;;;0.43;56.01;98588.30;220351;1271;26360;-71
2022/02/19 22:49:27;;;;;;;19.60;8.10;;;;;;;0.51;56.53;98586.02;220460;1271;22800;-69
2022/02/19 22:54:52;;;;;;;22.50;7.50;;;;;;;0.61;56.06;98581.88;220643;1271;24210;-69
2022/02/19 23:00:32;;;;;;;20.70;7.70;;;;;;;0.65;56.37;98576.02;219939;1271;24157;-70
2022/02/19 23:05:36;;;;;;;22.00;8.00;;;;;;;0.69;56.04;98574.19;220558;1271;25481;-70
2022/02/19 23:10:42;;;;;;;19.00;8.10;;;;;;;0.73;56.25;98568.73;219338;1271;22553;-70
2022/02/19 23:15:50;;;;;;;21.30;7.30;;;;;;;0.80;56.39;98568.13;219655;1271;22543;-70
2022/02/19 23:21:11;;;;;;;23.00;8.00;;;;;;;0.85;56.12;98568.23;219603;1271;22558;-70
2022/02/19 23:33:12;;;;;;;21.00;7.80;;;;;;;0.84;56.05;98568.21;220161;1271;22556;-70
2022/02/19 23:38:48;;;;;;;24.00;7.60;;;;;;;0.80;55.89;98569.87;220146;1271;26668;-70
2022/02/19 23:44:16;;;;;;;19.60;7.20;;;;;;;0.82;56.26;98564.27;220056;1271;24245;-69
2022/02/19 23:49:28;;;;;;;18.60;7.70;;;;;;;0.83;55.99;98562.60;219163;1271;24427;-70
2022/02/19 23:54:38;;;;;;;19.00;7.40;;;;;;;0.81;56.00;98560.92;219336;1271;22754;-70
2022/02/19 23:59:44;;;;;;;22.60;7.80;;;;;;;0.72;55.87;98555.45;219833;1271;24255;-70
